Time;durP1;ratioP1;P1;durP2;ratioP2;P2;SDS_P1;SDS_P2;PMS_P1;PMS_P2;Temp;Humidity;BMP_temperature;BMP_pressure;BME280_temperature;BME280_humidity;BME280_pressure;Samples;Min_cycle;Max_cycle;Signal;HPM_P1;HPM_P2
2021/12/09 00:00:43;;;;;;;1999.90;999.90;;;1.10;99.90;;;;;;4991589;28;20134;-66
2021/12/09 00:03:12;;;;;;;1999.90;999.90;;;1.00;99.90;;;;;;4992581;28;20054;-66
2021/12/09 00:05:42;;;;;;;1999.90;999.90;;;1.10;99.90;;;;;;4993049;28;20051;-66
2021/12/09 00:08:08;;;;;;;1999.90;999.90;;;1.00;99.90;;;;;;4991843;28;20044;-66
2021/12/09 00:10:35;;;;;;;1999.90;999.90;;;1.00;99.90;;;;;;4992633;28;20089;-66
2021/12/09 00:13:03;;;;;;;1999.90;999.90;;;1.00;99.90;;;;;;5009422;28;20489;-65
2021/12/09 00:15:28;;;;;;;1999.90;999.90;;;0.90;99.90;;;;;;4995551;28;20073;-65
2021/12/09 00:17:54;;;;;;;1999.90;999.90;;;0.90;99.90;;;;;;5010844;28;20054;-65
2021/12/09 00:20:20;;;;;;;1999.90;999.90;;;0.90;99.90;;;;;;4996379;28;20047;-65
2021/12/09 00:22:46;;;;;;;1999.90;999.90;;;0.80;99.90;;;;;;4994985;28;20058;-65
2021/12/09 00:25:13;;;;;;;1999.90;999.90;;;0.80;99.90;;;;;;4995678;28;20140;-66
2021/12/09 00:27:41;;;;;;;1999.90;999.90;;;0.80;99.90;;;;;;4978383;28;20481;-65
2021/12/09 00:30:07;;;;;;;1999.90;999.90;;;0.70;99.90;;;;;;4995348;28;20118;-65
2021/12/09 00:32:33;;;;;;;1999.90;999.90;;;0.80;99.90;;;;;;4995577;28;20531;-65
2021/12/09 00:34:59;;;;;;;1999.90;999.90;;;0.80;99.90;;;;;;4995626;28;20077;-65
2021/12/09 00:37:33;;;;;;;1999.90;999.90;;;0.80;99.90;;;;;;4995195;28;20128;-65
2021/12/09 00:39:58;;;;;;;1999.90;999.90;;;0.70;99.90;;;;;;4995493;28;20424;-65
2021/12/09 00:42:25;;;;;;;1999.90;999.90;;;0.70;99.90;;;;;;4995104;28;20050;-65
2021/12/09 00:44:52;;;;;;;1999.90;999.90;;;0.60;99.90;;;;;;4978061;28;20408;-65
2021/12/09 00:47:18;;;;;;;1999.90;999.90;;;0.80;99.90;;;;;;4977707;28;20054;-65
2021/12/09 00:49:45;;;;;;;1999.90;999.90;;;0.90;99.90;;;;;;5009935;28;20054;-65
2021/12/09 00:52:11;;;;;;;1999.90;999.90;;;1.00;99.90;;;;;;4995407;28;20121;-65
2021/12/09 00:54:38;;;;;;;1999.90;999.90;;;1.00;99.90;;;;;;4995336;28;20074;-65
2021/12/09 00:57:04;;;;;;;1999.90;999.90;;;1.00;99.90;;;;;;4995030;28;20073;-65
2021/12/09 00:59:31;;;;;;;1999.90;999.90;;;1.00;99.90;;;;;;4994983;28;20133;-65
2021/12/09 01:01:57;;;;;;;1999.90;999.90;;;1.00;99.90;;;;;;5006113;28;20049;-65
2021/12/09 01:04:23;;;;;;;1999.90;999.90;;;1.00;99.90;;;;;;5014328;28;20042;-65
2021/12/09 01:06:50;;;;;;;1999.90;999.90;;;0.90;99.90;;;;;;5029968;28;20507;-65
2021/12/09 01:09:16;;;;;;;1999.90;999.90;;;0.90;99.90;;;;;;5014468;28;20107;-65
2021/12/09 01:11:42;;;;;;;1999.90;999.90;;;0.80;99.90;;;;;;4995251;28;20382;-65
2021/12/09 01:14:07;;;;;;;1999.90;999.90;;;0.80;99.90;;;;;;4986586;28;20485;-64
2021/12/09 01:16:33;;;;;;;1999.90;999.90;;;0.70;99.90;;;;;;4975214;28;20497;-65
2021/12/09 01:18:59;;;;;;;1999.90;999.90;;;0.60;99.90;;;;;;4980574;28;20134;-65
2021/12/09 01:21:25;;;;;;;1999.90;999.90;;;0.60;99.90;;;;;;4995157;28;20085;-65
2021/12/09 01:23:51;;;;;;;1999.90;999.90;;;0.50;99.90;;;;;;4993625;28;20054;-65
2021/12/09 01:26:17;;;;;;;1999.90;999.90;;;0.50;99.90;;;;;;4994055;28;20045;-65
2021/12/09 01:28:54;;;;;;;1999.90;999.90;;;0.50;99.90;;;;;;4988661;28;20046;-65
2021/12/09 01:31:31;;;;;;;1999.90;999.90;;;0.50;99.90;;;;;;4994001;28;20050;-65
2021/12/09 01:34:01;;;;;;;1999.90;999.90;;;0.40;99.90;;;;;;4994909;28;20129;-65
2021/12/09 01:36:28;;;;;;;1999.90;999.90;;;0.40;99.90;;;;;;4981141;28;20112;-64
2021/12/09 01:38:54;;;;;;;1999.90;999.90;;;0.40;99.90;;;;;;5013169;28;20556;-65
2021/12/09 01:41:19;;;;;;;1999.90;999.90;;;0.30;99.90;;;;;;5014293;28;20121;-64
2021/12/09 01:43:45;;;;;;;1999.90;999.90;;;0.30;99.90;;;;;;5014144;28;20058;-64
2021/12/09 01:46:14;;;;;;;1999.90;999.90;;;0.30;99.90;;;;;;5000930;28;20054;-65
2021/12/09 01:48:42;;;;;;;1999.90;999.90;;;0.30;99.90;;;;;;4977266;28;20046;-65
2021/12/09 01:51:09;;;;;;;1999.90;999.90;;;0.40;99.90;;;;;;4994597;28;20130;-65
2021/12/09 01:53:35;;;;;;;1999.90;999.90;;;0.30;99.90;;;;;;5004300;28;20054;-65
2021/12/09 01:56:04;;;;;;;1999.90;999.90;;;0.40;99.90;;;;;;4994161;28;20050;-64
2021/12/09 01:58:30;;;;;;;1999.90;999.90;;;0.40;99.90;;;;;;4993782;28;20497;-64
2021/12/09 02:00:56;;;;;;;1999.90;999.90;;;0.40;99.90;;;;;;4993297;28;20102;-64
2021/12/09 02:03:22;;;;;;;1999.90;999.90;;;0.40;99.90;;;;;;4994174;28;20058;-65
2021/12/09 02:05:48;;;;;;;1999.90;999.90;;;0.40;99.90;;;;;;4994215;28;20453;-64
2021/12/09 02:08:15;;;;;;;1999.90;999.90;;;0.40;99.90;;;;;;4993145;28;20157;-64
2021/12/09 02:10:42;;;;;;;1999.90;999.90;;;0.30;99.90;;;;;;4994264;28;20046;-64
2021/12/09 02:13:08;;;;;;;1999.90;999.90;;;0.30;99.90;;;;;;4993807;28;20133;-65
2021/12/09 02:15:35;;;;;;;1999.90;999.90;;;0.30;99.90;;;;;;4993081;28;20109;-64
2021/12/09 02:18:07;;;;;;;1999.90;999.90;;;0.20;99.90;;;;;;4993946;28;20046;-64
2021/12/09 02:20:34;;;;;;;1999.90;999.90;;;0.20;99.90;;;;;;4993521;28;20054;-65
2021/12/09 02:23:06;;;;;;;1999.90;999.90;;;0.20;99.90;;;;;;4993395;28;20062;-65
2021/12/09 02:25:32;;;;;;;1999.90;999.90;;;0.20;99.90;;;;;;4976370;28;20045;-65
2021/12/09 02:27:58;;;;;;;1999.90;999.90;;;0.20;99.90;;;;;;4993013;28;20042;-64
2021/12/09 02:30:24;;;;;;;1999.90;999.90;;;0.20;99.90;;;;;;4993463;28;20043;-65
2021/12/09 02:32:50;;;;;;;1999.90;999.90;;;0.10;99.90;;;;;;4993790;28;20050;-65
2021/12/09 02:35:15;;;;;;;1999.90;999.90;;;0.10;99.90;;;;;;4992804;28;20062;-64
2021/12/09 02:37:42;;;;;;;1999.90;999.90;;;0.10;99.90;;;;;;4993312;28;20054;-64
2021/12/09 02:40:09;;;;;;;1999.90;999.90;;;0.10;99.90;;;;;;4993494;28;20133;-64
2021/12/09 02:42:36;;;;;;;1999.90;999.90;;;0.00;99.90;;;;;;4992619;28;20672;-64
2021/12/09 02:45:05;;;;;;;1999.90;999.90;;;0.10;99.90;;;;;;4993447;28;20378;-64
2021/12/09 02:47:31;;;;;;;1999.90;999.90;;;0.10;99.90;;;;;;4993406;28;20061;-64
2021/12/09 02:49:56;;;;;;;1999.90;999.90;;;0.10;99.90;;;;;;4992988;28;20041;-65
2021/12/09 02:52:22;;;;;;;1999.90;999.90;;;0.10;99.90;;;;;;4994471;28;20038;-65
2021/12/09 02:54:48;;;;;;;1999.90;999.90;;;0.20;99.90;;;;;;5013175;28;20502;-65
2021/12/09 02:57:14;;;;;;;1999.90;999.90;;;0.10;99.90;;;;;;4998509;28;20052;-65
2021/12/09 02:59:40;;;;;;;1999.90;999.90;;;0.10;99.90;;;;;;4992838;28;20113;-65
2021/12/09 03:02:09;;;;;;;1999.90;999.90;;;0.10;99.90;;;;;;4993439;28;20435;-65
2021/12/09 03:04:37;;;;;;;1999.90;999.90;;;0.10;99.90;;;;;;4993512;28;20078;-65
2021/12/09 03:07:06;;;;;;;1999.90;999.90;;;0.10;99.90;;;;;;5012547;28;20416;-65
2021/12/09 03:09:32;;;;;;;1999.90;999.90;;;0.10;99.90;;;;;;5012752;28;20099;-65
2021/12/09 03:12:04;;;;;;;1999.90;999.90;;;0.00;99.90;;;;;;5012356;28;20172;-65
2021/12/09 03:14:30;;;;;;;1999.90;999.90;;;0.00;99.90;;;;;;5000828;28;20050;-65
2021/12/09 03:16:56;;;;;;;1999.90;999.90;;;0.00;99.90;;;;;;4974983;28;20097;-65
2021/12/09 03:19:21;;;;;;;1999.90;999.90;;;0.00;99.90;;;;;;4993081;28;20120;-65
2021/12/09 03:21:48;;;;;;;1999.90;999.90;;;0.00;99.90;;;;;;4992950;28;20057;-65
2021/12/09 03:24:18;;;;;;;1999.90;999.90;;;0.00;99.90;;;;;;4992094;28;20058;-65
2021/12/09 03:26:48;;;;;;;1999.90;999.90;;;0.00;99.90;;;;;;4993260;28;20058;-65
2021/12/09 03:29:16;;;;;;;1999.90;999.90;;;0.00;99.90;;;;;;4992901;28;20121;-64
2021/12/09 03:31:45;;;;;;;1999.90;999.90;;;0.00;99.90;;;;;;4974646;28;20433;-64
2021/12/09 03:34:12;;;;;;;1999.90;999.90;;;0.00;99.90;;;;;;4993321;28;20050;-64
2021/12/09 03:36:38;;;;;;;1999.90;999.90;;;0.00;99.90;;;;;;4992746;28;20420;-64
2021/12/09 03:39:09;;;;;;;1999.90;999.90;;;0.00;99.90;;;;;;4992366;28;20066;-65
2021/12/09 03:41:35;;;;;;;1999.90;999.90;;;-0.10;99.90;;;;;;4992892;28;20080;-65
2021/12/09 03:44:02;;;;;;;1999.90;999.90;;;0.00;99.90;;;;;;4959074;28;20536;-65
2021/12/09 03:46:27;;;;;;;1999.90;999.90;;;0.00;99.90;;;;;;4992156;28;20105;-65
2021/12/09 03:48:53;;;;;;;1999.90;999.90;;;-0.10;99.90;;;;;;4978388;28;20481;-64
2021/12/09 03:51:19;;;;;;;1999.90;999.90;;;0.00;99.90;;;;;;4996184;28;20085;-64
2021/12/09 03:53:45;;;;;;;1999.90;999.90;;;0.00;99.90;;;;;;5008417;28;20192;-64
2021/12/09 03:56:10;;;;;;;1999.90;999.90;;;0.00;99.90;;;;;;5016280;28;20548;-64
2021/12/09 03:58:36;;;;;;;1999.90;999.90;;;-0.10;99.90;;;;;;5004404;28;20082;-64
2021/12/09 04:01:03;;;;;;;1999.90;999.90;;;-0.10;99.90;;;;;;4995858;28;20547;-64
2021/12/09 04:03:29;;;;;;;1999.90;999.90;;;0.00;99.90;;;;;;4996339;28;20069;-64
2021/12/09 04:05:55;;;;;;;1999.90;999.90;;;-0.10;99.90;;;;;;4996364;28;20065;-64
2021/12/09 04:08:21;;;;;;;1999.90;999.90;;;-0.10;99.90;;;;;;4995361;28;20408;-64
2021/12/09 04:10:49;;;;;;;1999.90;999.90;;;-0.10;99.90;;;;;;4996475;28;20103;-64
2021/12/09 04:13:16;;;;;;;1999.90;999.90;;;-0.10;99.90;;;;;;4995650;28;20042;-65
2021/12/09 04:15:42;;;;;;;1999.90;999.90;;;-0.10;99.90;;;;;;4995665;28;20504;-65
2021/12/09 04:18:09;;;;;;;1999.90;999.90;;;-0.10;99.90;;;;;;4996088;28;20489;-64
2021/12/09 04:20:35;;;;;;;1999.90;999.90;;;-0.20;99.90;;;;;;4995561;28;20465;-65
2021/12/09 04:23:01;;;;;;;1999.90;999.90;;;-0.10;99.90;;;;;;4995729;28;20050;-65
2021/12/09 04:25:27;;;;;;;1999.90;999.90;;;-0.20;99.90;;;;;;4995843;28;20118;-64
2021/12/09 04:27:55;;;;;;;1999.90;999.90;;;-0.10;99.90;;;;;;4995193;28;20433;-64
2021/12/09 04:30:22;;;;;;;1999.90;999.90;;;-0.10;99.90;;;;;;4995633;28;20052;-65
2021/12/09 04:32:51;;;;;;;1999.90;999.90;;;-0.10;99.90;;;;;;4995766;28;20054;-64
2021/12/09 04:35:17;;;;;;;1999.90;999.90;;;-0.10;99.90;;;;;;5013960;28;20046;-65
2021/12/09 04:37:43;;;;;;;1999.90;999.90;;;0.00;99.90;;;;;;5015170;28;20060;-64
2021/12/09 04:40:10;;;;;;;1999.90;999.90;;;0.00;99.90;;;;;;5015445;28;20049;-64
2021/12/09 04:42:37;;;;;;;1999.90;999.90;;;0.00;99.90;;;;;;5007325;28;20121;-64
2021/12/09 04:45:04;;;;;;;1999.90;999.90;;;0.00;99.90;;;;;;4995316;28;20050;-65
2021/12/09 04:47:30;;;;;;;1999.90;999.90;;;0.00;99.90;;;;;;4995545;28;20039;-64
2021/12/09 04:49:56;;;;;;;1999.90;999.90;;;0.00;99.90;;;;;;4995033;28;20129;-65
2021/12/09 04:52:22;;;;;;;1999.90;999.90;;;0.00;99.90;;;;;;5009125;28;20042;-64
2021/12/09 04:54:47;;;;;;;1999.90;999.90;;;0.00;99.90;;;;;;5015346;28;20054;-64
2021/12/09 04:57:14;;;;;;;1999.90;999.90;;;0.00;99.90;;;;;;4996769;28;20056;-64
2021/12/09 04:59:41;;;;;;;1999.90;999.90;;;0.00;99.90;;;;;;4985420;28;20042;-64
2021/12/09 05:02:12;;;;;;;1999.90;999.90;;;0.00;99.90;;;;;;4995405;28;20046;-64
2021/12/09 05:04:38;;;;;;;1999.90;999.90;;;0.10;99.90;;;;;;4994805;28;20046;-64
2021/12/09 05:07:04;;;;;;;1999.90;999.90;;;0.20;99.90;;;;;;4977453;28;20437;-64
2021/12/09 05:09:37;;;;;;;1999.90;999.90;;;0.20;99.90;;;;;;5004036;28;20054;-64
2021/12/09 05:12:05;;;;;;;1999.90;999.90;;;0.30;99.90;;;;;;5014714;28;20480;-64
2021/12/09 05:14:31;;;;;;;1999.90;999.90;;;0.40;99.90;;;;;;5002795;28;20042;-64
2021/12/09 05:16:58;;;;;;;1999.90;999.90;;;0.40;99.90;;;;;;4994536;28;20051;-64
2021/12/09 05:19:24;;;;;;;1999.90;999.90;;;0.40;99.90;;;;;;4995299;28;20084;-64
2021/12/09 05:21:53;;;;;;;1999.90;999.90;;;0.40;99.90;;;;;;4977125;28;20109;-65
2021/12/09 05:24:19;;;;;;;1999.90;999.90;;;0.40;99.90;;;;;;4994122;28;20561;-65
2021/12/09 05:26:50;;;;;;;1999.90;999.90;;;0.30;99.90;;;;;;4994797;28;20081;-64
2021/12/09 05:29:18;;;;;;;1999.90;999.90;;;0.30;99.90;;;;;;4977038;28;20050;-65
2021/12/09 05:34:29;;;;;;;1999.90;999.90;;;0.30;99.90;;;;;;4995056;28;20469;-64
2021/12/09 05:36:55;;;;;;;1999.90;999.90;;;0.40;99.90;;;;;;4976996;28;20050;-64
2021/12/09 05:39:21;;;;;;;1999.90;999.90;;;0.40;99.90;;;;;;4993834;28;20106;-64
2021/12/09 05:41:48;;;;;;;1999.90;999.90;;;0.50;99.90;;;;;;4994832;28;20049;-65
2021/12/09 05:44:14;;;;;;;1999.90;999.90;;;0.50;99.90;;;;;;4998238;28;20450;-64
2021/12/09 05:46:45;;;;;;;1999.90;999.90;;;0.50;99.90;;;;;;5004027;28;20038;-64
2021/12/09 05:49:12;;;;;;;1999.90;999.90;;;0.60;99.90;;;;;;4994541;28;20378;-65
2021/12/09 05:51:39;;;;;;;1999.90;999.90;;;0.60;99.90;;;;;;4975703;28;20053;-65
2021/12/09 05:54:05;;;;;;;1999.90;999.90;;;0.50;99.90;;;;;;4996171;28;20055;-65
2021/12/09 05:56:31;;;;;;;1999.90;999.90;;;0.60;99.90;;;;;;4994369;28;20049;-65
2021/12/09 05:58:57;;;;;;;1999.90;999.90;;;0.60;99.90;;;;;;4993032;28;20082;-64
2021/12/09 06:01:23;;;;;;;1999.90;999.90;;;0.60;99.90;;;;;;4994242;28;20038;-65
2021/12/09 06:03:49;;;;;;;1999.90;999.90;;;0.60;99.90;;;;;;4993970;28;20050;-65
2021/12/09 06:06:15;;;;;;;1999.90;999.90;;;0.60;99.90;;;;;;4975779;28;20136;-65
2021/12/09 06:08:41;;;;;;;1999.90;999.90;;;0.60;99.90;;;;;;4993892;28;20050;-65
2021/12/09 06:11:08;;;;;;;1999.90;999.90;;;0.60;99.90;;;;;;4976075;28;20074;-65
2021/12/09 06:13:37;;;;;;;1999.90;999.90;;;0.60;99.90;;;;;;4993131;28;20050;-65
2021/12/09 06:16:04;;;;;;;1999.90;999.90;;;0.70;99.90;;;;;;4993906;28;20050;-65
2021/12/09 06:18:31;;;;;;;1999.90;999.90;;;0.70;99.90;;;;;;4993762;28;20508;-65
2021/12/09 06:20:57;;;;;;;1999.90;999.90;;;0.70;99.90;;;;;;4992904;28;20070;-65
2021/12/09 06:23:23;;;;;;;1999.90;999.90;;;0.70;99.90;;;;;;4993883;28;20156;-65
2021/12/09 06:25:50;;;;;;;1999.90;999.90;;;0.70;99.90;;;;;;4993708;28;20085;-65
2021/12/09 06:28:16;;;;;;;1999.90;999.90;;;0.60;99.90;;;;;;5009906;28;20061;-65
2021/12/09 06:30:43;;;;;;;1999.90;999.90;;;0.50;99.90;;;;;;5013669;28;20120;-65
2021/12/09 06:33:09;;;;;;;1999.90;999.90;;;0.50;99.90;;;;;;5013355;28;20041;-65
2021/12/09 06:35:36;;;;;;;1999.90;999.90;;;0.40;99.90;;;;;;5011617;28;20053;-65
2021/12/09 06:38:02;;;;;;;1999.90;999.90;;;0.40;99.90;;;;;;5011979;28;20050;-65
2021/12/09 06:40:27;;;;;;;1999.90;999.90;;;0.40;99.90;;;;;;5012955;28;20041;-65
2021/12/09 06:42:54;;;;;;;1999.90;999.90;;;0.40;99.90;;;;;;5011796;28;20172;-65
2021/12/09 06:45:22;;;;;;;1999.90;999.90;;;0.30;99.90;;;;;;5012932;28;20050;-65
2021/12/09 06:47:48;;;;;;;1999.90;999.90;;;0.30;99.90;;;;;;4993162;28;20052;-65
2021/12/09 06:50:17;;;;;;;1999.90;999.90;;;0.30;99.90;;;;;;5012512;28;20173;-65
2021/12/09 06:52:43;;;;;;;1999.90;999.90;;;0.30;99.90;;;;;;5013202;28;20404;-65
2021/12/09 06:55:11;;;;;;;1999.90;999.90;;;0.30;99.90;;;;;;5004121;28;20049;-65
2021/12/09 06:57:38;;;;;;;1999.90;999.90;;;0.20;99.90;;;;;;4993037;28;20472;-65
2021/12/09 07:00:08;;;;;;;1999.90;999.90;;;0.20;99.90;;;;;;4993044;28;20121;-66
2021/12/09 07:02:34;;;;;;;1999.90;999.90;;;0.10;99.90;;;;;;4992772;28;20050;-65
2021/12/09 07:05:00;;;;;;;1999.90;999.90;;;0.10;99.90;;;;;;4992972;28;20049;-66
2021/12/09 07:07:25;;;;;;;1999.90;999.90;;;0.10;99.90;;;;;;4993536;28;20054;-65
2021/12/09 07:09:51;;;;;;;1999.90;999.90;;;0.00;99.90;;;;;;4992623;28;20401;-65
2021/12/09 07:12:17;;;;;;;1999.90;999.90;;;0.00;99.90;;;;;;4975400;28;20144;-65
2021/12/09 07:14:43;;;;;;;1999.90;999.90;;;0.00;99.90;;;;;;4993436;28;20386;-66
2021/12/09 07:17:10;;;;;;;1999.90;999.90;;;0.00;99.90;;;;;;4992540;28;20497;-65
2021/12/09 07:19:37;;;;;;;1999.90;999.90;;;0.10;99.90;;;;;;4992805;28;20427;-66
2021/12/09 07:22:04;;;;;;;1999.90;999.90;;;0.10;99.90;;;;;;5010021;28;20556;-66
2021/12/09 07:24:30;;;;;;;1999.90;999.90;;;0.10;99.90;;;;;;4978927;28;20417;-66
2021/12/09 07:26:57;;;;;;;1999.90;999.90;;;0.10;99.90;;;;;;4996832;28;20424;-65
2021/12/09 07:29:24;;;;;;;1999.90;999.90;;;0.10;99.90;;;;;;4996951;28;20049;-65
2021/12/09 07:31:50;;;;;;;1999.90;999.90;;;0.10;99.90;;;;;;4996032;28;20396;-65
2021/12/09 07:34:16;;;;;;;1999.90;999.90;;;0.20;99.90;;;;;;4996871;28;20050;-65
2021/12/09 07:36:43;;;;;;;1999.90;999.90;;;0.30;99.90;;;;;;4997038;28;20057;-66
2021/12/09 07:39:09;;;;;;;1999.90;999.90;;;0.30;99.90;;;;;;4993866;28;20129;-65
2021/12/09 07:41:36;;;;;;;1999.90;999.90;;;0.40;99.90;;;;;;4978866;28;20444;-65
2021/12/09 07:44:05;;;;;;;1999.90;999.90;;;0.40;99.90;;;;;;5015890;28;20053;-65
2021/12/09 07:46:32;;;;;;;1999.90;999.90;;;0.40;99.90;;;;;;5015205;28;20042;-65
2021/12/09 07:48:58;;;;;;;1999.90;999.90;;;0.40;99.90;;;;;;5012454;28;20119;-65
2021/12/09 07:51:24;;;;;;;1999.90;999.90;;;0.40;99.90;;;;;;5015018;28;20045;-66
2021/12/09 07:53:50;;;;;;;1999.90;999.90;;;0.40;99.90;;;;;;5015894;28;20042;-65
2021/12/09 07:56:16;;;;;;;1999.90;999.90;;;0.40;99.90;;;;;;5029126;28;20054;-65
2021/12/09 07:58:42;;;;;;;1999.90;999.90;;;0.40;99.90;;;;;;5002559;28;20136;-66
2021/12/09 08:01:08;;;;;;;1999.90;999.90;;;0.50;99.90;;;;;;4996320;28;20058;-66
2021/12/09 08:03:33;;;;;;;1999.90;999.90;;;0.60;99.90;;;;;;4996199;28;20046;-65
2021/12/09 08:05:59;;;;;;;1999.90;999.90;;;0.60;99.90;;;;;;5008836;28;20527;-65
2021/12/09 08:08:25;;;;;;;1999.90;999.90;;;0.60;99.90;;;;;;5010354;28;20140;-65
2021/12/09 08:10:51;;;;;;;1999.90;999.90;;;0.50;99.90;;;;;;5014473;28;20038;-65
2021/12/09 08:13:17;;;;;;;1999.90;999.90;;;0.50;99.90;;;;;;5014897;28;20109;-65
2021/12/09 08:15:50;;;;;;;1999.90;999.90;;;0.50;99.90;;;;;;4997129;28;20484;-65
2021/12/09 08:20:47;;;;;;;1999.90;999.90;;;0.50;99.90;;;;;;5010452;28;20053;-65
2021/12/09 08:23:13;;;;;;;1999.90;999.90;;;0.50;99.90;;;;;;5014733;28;20089;-65
2021/12/09 08:25:40;;;;;;;1999.90;999.90;;;0.50;99.90;;;;;;5013833;28;20034;-65
2021/12/09 08:28:06;;;;;;;1999.90;999.90;;;0.50;99.90;;;;;;4992536;28;20054;-65
2021/12/09 08:30:33;;;;;;;1999.90;999.90;;;0.50;99.90;;;;;;5015012;28;20133;-65
2021/12/09 08:32:59;;;;;;;1999.90;999.90;;;0.60;99.90;;;;;;5012244;28;20492;-65
2021/12/09 08:35:25;;;;;;;1999.90;999.90;;;0.50;99.90;;;;;;5012040;28;20080;-65
2021/12/09 08:37:51;;;;;;;1999.90;999.90;;;0.60;99.90;;;;;;5015003;28;20061;-65
2021/12/09 08:40:20;;;;;;;1999.90;999.90;;;0.60;99.90;;;;;;5015060;28;20041;-65
2021/12/09 08:42:49;;;;;;;1999.90;999.90;;;0.60;99.90;;;;;;4996562;28;20062;-66
2021/12/09 08:45:16;;;;;;;1999.90;999.90;;;0.60;99.90;;;;;;5008168;28;20104;-65
2021/12/09 08:47:43;;;;;;;1999.90;999.90;;;0.80;99.90;;;;;;4997463;28;20436;-66
2021/12/09 08:50:14;;;;;;;1999.90;999.90;;;0.80;99.90;;;;;;4995243;28;20481;-66
2021/12/09 08:52:40;;;;;;;1999.90;999.90;;;0.80;99.90;;;;;;4999082;28;20056;-65
2021/12/09 08:55:08;;;;;;;1999.90;999.90;;;0.80;99.90;;;;;;5005654;28;20050;-66
2021/12/09 08:57:36;;;;;;;1999.90;999.90;;;0.90;99.90;;;;;;4995106;28;20105;-65
2021/12/09 09:00:06;;;;;;;1999.90;999.90;;;0.90;99.90;;;;;;4994777;28;20058;-66
2021/12/09 09:02:32;;;;;;;1999.90;999.90;;;1.00;99.90;;;;;;5002603;28;20536;-66
2021/12/09 09:04:58;;;;;;;1999.90;999.90;;;1.10;99.90;;;;;;5012515;28;20073;-66
2021/12/09 09:07:24;;;;;;;1999.90;999.90;;;1.10;99.90;;;;;;4986654;28;20100;-68
2021/12/09 09:09:49;;;;;;;1999.90;999.90;;;1.20;99.90;;;;;;4993617;28;20082;-66
2021/12/09 09:12:16;;;;;;;1999.90;999.90;;;1.30;99.90;;;;;;4995131;28;20046;-66
2021/12/09 09:14:43;;;;;;;1999.90;999.90;;;1.40;99.90;;;;;;4995157;28;20061;-66
2021/12/09 09:17:09;;;;;;;1999.90;999.90;;;1.50;99.90;;;;;;5011481;28;20053;-66
2021/12/09 09:19:36;;;;;;;1999.90;999.90;;;1.60;99.90;;;;;;4991115;28;20061;-66
2021/12/09 09:22:03;;;;;;;1999.90;999.90;;;1.70;99.90;;;;;;5012987;28;20044;-66
2021/12/09 09:24:29;;;;;;;1999.90;999.90;;;1.70;99.90;;;;;;5013310;28;20057;-66
2021/12/09 09:26:55;;;;;;;1999.90;999.90;;;1.90;99.90;;;;;;5001214;28;20061;-66
2021/12/09 09:29:21;;;;;;;1999.90;999.90;;;2.00;99.90;;;;;;4994818;28;20061;-67
2021/12/09 09:31:47;;;;;;;1999.90;999.90;;;2.10;99.90;;;;;;4997153;28;20512;-66
2021/12/09 09:34:13;;;;;;;1999.90;999.90;;;2.20;99.90;;;;;;5028533;28;20128;-66
2021/12/09 09:36:44;;;;;;;1999.90;999.90;;;2.30;99.90;;;;;;5012450;28;20054;-66
2021/12/09 09:39:19;;;;;;;1999.90;999.90;;;2.50;99.90;;;;;;5013813;28;20493;-66
2021/12/09 09:41:55;;;;;;;1999.90;999.90;;;2.60;99.90;;;;;;5014217;28;20053;-66
2021/12/09 09:44:27;;;;;;;1999.90;999.90;;;2.70;99.90;;;;;;4998253;28;20042;-66
2021/12/09 09:46:57;;;;;;;1999.90;999.90;;;3.10;99.90;;;;;;4993497;28;20477;-67
2021/12/09 09:49:23;;;;;;;1999.90;999.90;;;3.40;99.90;;;;;;4994295;28;20090;-66
2021/12/09 09:51:49;;;;;;;1999.90;999.90;;;3.80;99.90;;;;;;4996352;28;20045;-66
2021/12/09 09:54:15;;;;;;;1999.90;999.90;;;4.30;99.90;;;;;;5012336;28;20435;-66
2021/12/09 09:56:42;;;;;;;1999.90;999.90;;;4.60;99.90;;;;;;4994670;28;20051;-66
2021/12/09 09:59:10;;;;;;;1999.90;999.90;;;5.10;99.90;;;;;;5008301;28;20086;-66
2021/12/09 10:01:38;;;;;;;1999.90;999.90;;;5.30;99.90;;;;;;5002254;28;20058;-66
2021/12/09 10:04:14;;;;;;;1999.90;999.90;;;5.30;99.90;;;;;;4994057;28;20550;-66
2021/12/09 10:06:44;;;;;;;1999.90;999.90;;;5.40;99.90;;;;;;4991095;28;20039;-66
2021/12/09 10:09:10;;;;;;;1999.90;999.90;;;5.80;99.90;;;;;;4993504;28;20046;-66
2021/12/09 10:11:36;;;;;;;1999.90;999.90;;;6.00;99.90;;;;;;4980164;28;20050;-66
2021/12/09 10:14:13;;;;;;;1999.90;999.90;;;5.70;99.90;;;;;;4993362;28;20108;-67
2021/12/09 10:16:39;;;;;;;1999.90;999.90;;;6.00;99.90;;;;;;4993209;28;20046;-66
2021/12/09 10:19:15;;;;;;;1999.90;999.90;;;6.20;99.90;;;;;;4992828;28;20042;-67
2021/12/09 10:21:42;;;;;;;1999.90;999.90;;;6.30;99.90;;;;;;5009197;28;20125;-66
2021/12/09 10:24:08;;;;;;;1999.90;999.90;;;5.70;99.90;;;;;;4992944;28;20093;-67
2021/12/09 10:26:42;;;;;;;1999.90;999.90;;;5.60;99.90;;;;;;5007654;28;20508;-66
2021/12/09 10:29:08;;;;;;;1999.90;999.90;;;5.70;99.90;;;;;;4992802;28;20058;-67
2021/12/09 10:31:44;;;;;;;1999.90;999.90;;;5.90;99.90;;;;;;4993728;28;20056;-66
2021/12/09 10:37:02;;;;;;;1999.90;999.90;;;6.20;99.90;;;;;;5003947;28;20096;-66
2021/12/09 10:39:27;;;;;;;1999.90;999.90;;;6.30;99.90;;;;;;5012710;28;20050;-66
2021/12/09 10:41:56;;;;;;;1999.90;999.90;;;6.30;99.90;;;;;;5007849;28;20046;-67
2021/12/09 10:44:33;;;;;;;1999.90;999.90;;;6.30;99.90;;;;;;4993438;28;20467;-66
2021/12/09 10:47:09;;;;;;;1999.90;999.90;;;5.90;99.90;;;;;;4992444;28;20056;-66
2021/12/09 10:49:49;;;;;;;1999.90;999.90;;;5.50;99.90;;;;;;4993366;28;20096;-66
2021/12/09 10:52:23;;;;;;;1999.90;999.90;;;5.20;99.90;;;;;;4993089;28;20477;-66
2021/12/09 10:54:49;;;;;;;1999.90;999.90;;;5.00;99.90;;;;;;4991730;28;20038;-66
2021/12/09 10:57:23;;;;;;;1999.90;999.90;;;5.10;99.90;;;;;;4975583;28;20542;-66
2021/12/09 10:59:50;;;;;;;1999.90;999.90;;;4.90;99.90;;;;;;4979033;28;20125;-66
2021/12/09 11:02:16;;;;;;;1999.90;999.90;;;4.80;99.90;;;;;;4991943;28;20054;-66
2021/12/09 11:05:00;;;;;;;1999.90;999.90;;;4.50;99.90;;;;;;4973865;28;20062;-66
2021/12/09 11:07:30;;;;;;;1999.90;999.90;;;4.00;99.90;;;;;;4973887;28;20042;-66
2021/12/09 11:10:18;;;;;;;1999.90;999.90;;;3.80;99.90;;;;;;4988395;28;20121;-66
2021/12/09 11:12:51;;;;;;;1999.90;999.90;;;3.80;99.90;;;;;;4993011;28;20046;-66
2021/12/09 11:15:18;;;;;;;;;;;4.00;99.90;;;;;;4992535;28;20062;-66
2021/12/09 11:17:47;;;;;;;1999.90;999.90;;;3.90;99.90;;;;;;4992988;28;19925;-66
2021/12/09 11:20:14;;;;;;;1999.90;999.90;;;4.10;99.90;;;;;;4992632;28;20046;-66
2021/12/09 11:22:43;;;;;;;1999.90;999.90;;;4.10;99.90;;;;;;4991956;28;20093;-66
2021/12/09 11:25:33;;;;;;;1999.90;999.90;;;3.60;99.90;;;;;;4992799;28;20051;-66
2021/12/09 11:28:10;;;;;;;1999.90;999.90;;;3.20;99.90;;;;;;5007462;28;20174;-66
2021/12/09 11:31:04;;;;;;;1999.90;999.90;;;3.00;99.90;;;;;;4991555;28;20051;-66
2021/12/09 11:33:34;;;;;;;1999.90;999.90;;;2.80;99.90;;;;;;4991774;28;20378;-66
2021/12/09 11:36:01;;;;;;;1999.90;999.90;;;2.80;99.90;;;;;;5008033;28;20469;-66
2021/12/09 11:38:44;;;;;;;1999.90;999.90;;;2.90;99.90;;;;;;4991373;28;20126;-66
2021/12/09 11:41:31;;;;;;;1999.90;999.90;;;2.80;99.90;;;;;;4992800;28;20042;-66
2021/12/09 11:43:58;;;;;;;1999.90;999.90;;;2.80;99.90;;;;;;4992105;28;20061;-66
2021/12/09 11:46:24;;;;;;;1999.90;999.90;;;2.80;99.90;;;;;;4992460;28;20065;-66
2021/12/09 11:48:49;;;;;;;1999.90;999.90;;;2.60;99.90;;;;;;4992607;28;20473;-66
2021/12/09 11:51:15;;;;;;;1999.90;999.90;;;2.60;99.90;;;;;;4992237;28;20042;-66
2021/12/09 11:53:43;;;;;;;1999.90;999.90;;;2.60;99.90;;;;;;4992847;28;20078;-66
2021/12/09 11:56:26;;;;;;;1999.90;999.90;;;2.60;99.90;;;;;;4992683;28;20370;-65
2021/12/09 12:15:02;;;;;;;1999.90;999.90;;;2.50;99.90;;;;;;4994344;28;20064;-65
2021/12/09 12:17:36;;;;;;;1999.90;999.90;;;2.50;99.90;;;;;;5010492;28;20038;-65
2021/12/09 12:20:22;;;;;;;1999.90;999.90;;;2.40;99.90;;;;;;5015227;28;20069;-65
2021/12/09 12:25:48;;;;;;;1999.90;999.90;;;2.40;99.90;;;;;;4995930;28;20046;-64
2021/12/09 12:39:58;;;;;;;1999.90;999.90;;;2.40;99.90;;;;;;5014880;28;20103;-65
2021/12/09 12:45:11;;;;;;;1999.90;999.90;;;2.30;99.90;;;;;;5014806;28;20050;-65
2021/12/09 12:47:46;;;;;;;1999.90;999.90;;;2.30;99.90;;;;;;5014744;28;20103;-64
2021/12/09 12:50:15;;;;;;;1999.90;999.90;;;2.30;99.90;;;;;;5000306;28;20061;-64
2021/12/09 12:52:41;;;;;;;1999.90;999.90;;;2.30;99.90;;;;;;4995416;28;20489;-64